Time;durP1;ratioP1;P1;durP2;ratioP2;P2;SDS_P1;SDS_P2;PMS_P1;PMS_P2;Temp;Humidity;BMP_temperature;BMP_pressure;BME280_temperature;BME280_humidity;BME280_pressure;Samples;Min_cycle;Max_cycle;Signal;HPM_P1;HPM_P2
2024/03/13 00:03:04;;;;;;;1.77;1.60;;;;;;;;;;13046699;22;20026;-74
2024/03/13 00:08:08;;;;;;;2.50;1.70;;;;;;;;;;13046580;22;20026;-74
2024/03/13 00:13:11;;;;;;;2.08;1.60;;;;;;;;;;13011859;22;20050;-74
2024/03/13 00:18:16;;;;;;;2.08;1.65;;;;;;;;;;13046144;22;20072;-74
2024/03/13 00:23:19;;;;;;;3.15;2.30;;;;;;;;;;13044986;22;20030;-74
2024/03/13 00:28:23;;;;;;;3.25;2.22;;;;;;;;;;13044292;22;20042;-74
2024/03/13 00:33:28;;;;;;;1.63;1.50;;;;;;;;;;13044980;22;20033;-74
2024/03/13 00:38:33;;;;;;;1.88;1.58;;;;;;;;;;13039083;22;20026;-74
2024/03/13 00:43:37;;;;;;;2.00;1.60;;;;;;;;;;13044020;22;20030;-74
2024/03/13 00:48:41;;;;;;;2.00;1.30;;;;;;;;;;13043621;22;20520;-74
2024/03/13 00:53:46;;;;;;;1.10;0.95;;;;;;;;;;13011030;22;20030;-74
2024/03/13 00:58:49;;;;;;;0.82;0.82;;;;;;;;;;13042425;22;20409;-74
2024/03/13 01:03:58;;;;;;;0.85;0.85;;;;;;;;;;13037711;22;20071;-74
2024/03/13 01:09:01;;;;;;;1.83;1.23;;;;;;;;;;13011835;22;20023;-74
2024/03/13 01:14:05;;;;;;;1.05;1.00;;;;;;;;;;13043083;22;20447;-74
2024/03/13 01:19:11;;;;;;;1.63;1.02;;;;;;;;;;13041274;22;20019;-74
2024/03/13 01:24:14;;;;;;;1.03;0.97;;;;;;;;;;13041285;22;20054;-74
2024/03/13 01:29:19;;;;;;;1.33;1.00;;;;;;;;;;13040555;22;20265;-74
2024/03/13 01:34:23;;;;;;;1.55;1.15;;;;;;;;;;13039975;22;20069;-74
2024/03/13 01:39:28;;;;;;;1.83;1.27;;;;;;;;;;13039240;22;20122;-74
2024/03/13 01:55:24;;;;;;;2.92;1.70;;;;;;;;;;13038623;22;20015;-74
2024/03/13 02:05:52;;;;;;;3.75;2.03;;;;;;;;;;13053741;22;20034;-74
2024/03/13 02:10:58;;;;;;;2.10;1.58;;;;;;;;;;13053685;22;20077;-74
2024/03/13 02:16:05;;;;;;;1.90;1.60;;;;;;;;;;13052876;22;20057;-74
2024/03/13 02:21:09;;;;;;;;;;;;;;;;;;13053177;22;20027;-74
2024/03/13 02:26:13;;;;;;;1.85;1.45;;;;;;;;;;13052511;22;19915;-74
2024/03/13 02:31:17;;;;;;;2.13;1.73;;;;;;;;;;12984308;22;20404;-74
2024/03/13 02:36:20;;;;;;;1.92;1.70;;;;;;;;;;12985422;22;20023;-74
2024/03/13 02:41:24;;;;;;;1.77;1.38;;;;;;;;;;12984022;22;20019;-74
2024/03/13 02:46:28;;;;;;;1.85;1.58;;;;;;;;;;12977105;22;20027;-75
2024/03/13 02:51:31;;;;;;;2.13;1.55;;;;;;;;;;12987436;22;20031;-75
2024/03/13 02:56:36;;;;;;;2.22;1.77;;;;;;;;;;12962275;22;20950;-75
2024/03/13 03:01:39;;;;;;;2.22;1.42;;;;;;;;;;12988195;22;20396;-74
2024/03/13 03:06:44;;;;;;;1.50;1.23;;;;;;;;;;12988453;22;20023;-74
2024/03/13 03:11:47;;;;;;;1.33;1.23;;;;;;;;;;12986601;22;20053;-74
2024/03/13 03:16:51;;;;;;;1.90;1.60;;;;;;;;;;12987387;22;20023;-74
2024/03/13 03:21:55;;;;;;;2.45;1.52;;;;;;;;;;12987146;22;20023;-75
2024/03/13 03:26:58;;;;;;;1.67;1.35;;;;;;;;;;13013089;22;20027;-74
2024/03/13 03:32:02;;;;;;;1.20;1.10;;;;;;;;;;12985609;22;20072;-74
2024/03/13 03:37:05;;;;;;;2.10;1.60;;;;;;;;;;12984922;22;20493;-74
2024/03/13 03:42:09;;;;;;;1.38;1.27;;;;;;;;;;12985877;22;20050;-75
2024/03/13 03:47:12;;;;;;;1.98;1.58;;;;;;;;;;12986653;22;20080;-74
2024/03/13 03:52:16;;;;;;;1.90;1.60;;;;;;;;;;12959719;22;20023;-74
2024/03/13 03:57:20;;;;;;;1.60;1.50;;;;;;;;;;12984675;22;20031;-75
2024/03/13 04:02:24;;;;;;;2.40;1.58;;;;;;;;;;12996415;22;20054;-74
2024/03/13 04:07:28;;;;;;;1.48;1.38;;;;;;;;;;12987675;22;20042;-74
2024/03/13 04:12:32;;;;;;;1.77;1.60;;;;;;;;;;12986732;22;20023;-74
2024/03/13 04:17:35;;;;;;;1.63;1.42;;;;;;;;;;12985933;22;20077;-75
2024/03/13 04:22:40;;;;;;;1.95;1.70;;;;;;;;;;12980837;22;20038;-74
2024/03/13 04:27:43;;;;;;;1.52;1.42;;;;;;;;;;12991851;22;20027;-73
2024/03/13 04:32:47;;;;;;;1.67;1.33;;;;;;;;;;12982052;22;20631;-74
2024/03/13 04:37:51;;;;;;;2.03;1.58;;;;;;;;;;12985167;22;20386;-73
2024/03/13 04:42:54;;;;;;;2.17;1.85;;;;;;;;;;12983930;22;20034;-73
2024/03/13 04:47:58;;;;;;;2.10;1.58;;;;;;;;;;12983634;22;21102;-73
2024/03/13 04:53:01;;;;;;;1.35;1.25;;;;;;;;;;12982708;22;20390;-73
2024/03/13 04:58:05;;;;;;;1.73;1.60;;;;;;;;;;12984960;22;20023;-73
2024/03/13 05:03:09;;;;;;;1.20;1.10;;;;;;;;;;12992102;22;20047;-73
2024/03/13 05:08:13;;;;;;;2.00;1.42;;;;;;;;;;12983684;22;20027;-73
2024/03/13 05:13:17;;;;;;;1.85;1.20;;;;;;;;;;12958941;22;20031;-73
2024/03/13 05:18:20;;;;;;;1.38;1.27;;;;;;;;;;12996839;22;20023;-73
2024/03/13 05:23:24;;;;;;;2.08;1.45;;;;;;;;;;13047091;22;20714;-73
2024/03/13 05:28:28;;;;;;;1.40;1.00;;;;;;;;;;13047704;22;20072;-73
2024/03/13 05:33:32;;;;;;;1.35;1.08;;;;;;;;;;13046820;22;20602;-73
2024/03/13 05:38:35;;;;;;;1.17;1.08;;;;;;;;;;13046848;22;20030;-73
2024/03/13 05:43:38;;;;;;;1.60;1.00;;;;;;;;;;13020351;22;20393;-73
2024/03/13 05:48:42;;;;;;;1.45;1.10;;;;;;;;;;13020675;22;20461;-73
2024/03/13 05:53:45;;;;;;;1.25;1.05;;;;;;;;;;13019326;22;20045;-73
2024/03/13 05:58:48;;;;;;;1.05;0.90;;;;;;;;;;13047438;22;20022;-73
2024/03/13 06:03:53;;;;;;;1.38;1.00;;;;;;;;;;13020145;22;20109;-73
2024/03/13 06:08:56;;;;;;;1.17;1.00;;;;;;;;;;13050213;22;20065;-73
2024/03/13 06:13:59;;;;;;;0.80;0.80;;;;;;;;;;13045257;22;20045;-73
2024/03/13 06:19:03;;;;;;;0.68;0.68;;;;;;;;;;13045345;22;20030;-73
2024/03/13 06:24:07;;;;;;;0.82;0.70;;;;;;;;;;13045340;22;20458;-73
2024/03/13 06:34:31;;;;;;;2.45;0.80;;;;;;;;;;13055825;22;20729;-73
2024/03/13 06:39:36;;;;;;;0.50;0.50;;;;;;;;;;13048086;22;20068;-73
2024/03/13 06:44:39;;;;;;;0.50;0.50;;;;;;;;;;13028377;22;20038;-73
2024/03/13 06:49:43;;;;;;;0.50;0.50;;;;;;;;;;13051457;22;20094;-73
2024/03/13 06:54:46;;;;;;;0.55;0.52;;;;;;;;;;13048796;22;20023;-73
2024/03/13 06:59:50;;;;;;;0.50;0.50;;;;;;;;;;13021371;22;20477;-73
2024/03/13 07:04:53;;;;;;;0.40;0.40;;;;;;;;;;13047181;22;20554;-73
2024/03/13 07:09:57;;;;;;;0.30;0.30;;;;;;;;;;13046036;22;20490;-73
2024/03/13 07:15:00;;;;;;;3.80;0.40;;;;;;;;;;13046524;22;20101;-73
2024/03/13 07:20:05;;;;;;;0.40;0.40;;;;;;;;;;13021017;22;20117;-73
2024/03/13 07:25:09;;;;;;;0.40;0.40;;;;;;;;;;13067387;22;20007;-73
2024/03/13 07:30:14;;;;;;;0.35;0.30;;;;;;;;;;13045376;22;20022;-73
2024/03/13 07:35:18;;;;;;;0.50;0.50;;;;;;;;;;13067776;22;20019;-73
2024/03/13 07:40:21;;;;;;;0.40;0.40;;;;;;;;;;13049562;22;20029;-73
2024/03/13 07:45:26;;;;;;;0.30;0.30;;;;;;;;;;13049117;22;20026;-73
2024/03/13 07:50:29;;;;;;;0.30;0.30;;;;;;;;;;13049198;22;20029;-73
2024/03/13 07:55:32;;;;;;;0.30;0.30;;;;;;;;;;13048490;22;20102;-73
2024/03/13 08:00:36;;;;;;;0.28;0.28;;;;;;;;;;13048751;22;20031;-73
2024/03/13 08:05:40;;;;;;;0.50;0.50;;;;;;;;;;13049218;22;20033;-73
2024/03/13 08:10:44;;;;;;;0.45;0.40;;;;;;;;;;13048200;22;20358;-73
2024/03/13 08:16:06;;;;;;;0.93;0.40;;;;;;;;;;13056219;22;20046;-73
2024/03/13 08:21:26;;;;;;;0.63;0.63;;;;;;;;;;13071292;22;20019;-73
2024/03/13 08:26:47;;;;;;;0.73;0.70;;;;;;;;;;13069379;22;20029;-73
2024/03/13 08:32:09;;;;;;;2.15;0.60;;;;;;;;;;13056610;22;20022;-73
2024/03/13 08:37:31;;;;;;;0.30;0.30;;;;;;;;;;13057362;22;20038;-73
2024/03/13 08:42:51;;;;;;;0.30;0.30;;;;;;;;;;13064320;22;20031;-73
2024/03/13 08:48:12;;;;;;;1.15;0.50;;;;;;;;;;13062683;22;20023;-73
2024/03/13 08:53:34;;;;;;;0.40;0.40;;;;;;;;;;13055617;22;20098;-73
2024/03/13 08:58:55;;;;;;;0.30;0.30;;;;;;;;;;13056396;22;20106;-73
2024/03/13 09:04:17;;;;;;;0.38;0.38;;;;;;;;;;13056351;22;20029;-73
2024/03/13 09:09:39;;;;;;;0.40;0.40;;;;;;;;;;13057487;22;20029;-73
2024/03/13 09:14:42;;;;;;;0.30;0.30;;;;;;;;;;13047497;22;20018;-73
2024/03/13 09:19:49;;;;;;;0.30;0.30;;;;;;;;;;13046330;22;20089;-73
2024/03/13 09:24:53;;;;;;;0.20;0.20;;;;;;;;;;13048858;22;20446;-73
2024/03/13 09:29:56;;;;;;;0.28;0.28;;;;;;;;;;13046312;22;20026;-73
2024/03/13 09:34:59;;;;;;;0.40;0.40;;;;;;;;;;13047507;22;20023;-74
2024/03/13 09:40:07;;;;;;;0.30;0.30;;;;;;;;;;13046515;22;20053;-73
2024/03/13 09:45:12;;;;;;;0.45;0.20;;;;;;;;;;13068375;22;20025;-73
2024/03/13 09:50:15;;;;;;;0.20;0.20;;;;;;;;;;13067365;22;20170;-73
2024/03/13 09:55:19;;;;;;;0.22;0.20;;;;;;;;;;13045305;22;20461;-73
2024/03/13 10:00:23;;;;;;;0.10;0.10;;;;;;;;;;13044851;22;20019;-73
2024/03/13 10:05:26;;;;;;;0.10;0.10;;;;;;;;;;13021765;22;20458;-73
2024/03/13 10:10:30;;;;;;;0.13;0.13;;;;;;;;;;13019766;22;20024;-73
2024/03/13 10:15:33;;;;;;;0.20;0.20;;;;;;;;;;13045155;22;20025;-73
2024/03/13 10:20:38;;;;;;;1.15;0.40;;;;;;;;;;13046430;22;20019;-73
2024/03/13 10:25:41;;;;;;;0.30;0.30;;;;;;;;;;13051369;22;20102;-73
2024/03/13 10:30:47;;;;;;;0.68;0.40;;;;;;;;;;13048111;22;20106;-73
2024/03/13 10:35:51;;;;;;;0.40;0.30;;;;;;;;;;13048828;22;20102;-73
2024/03/13 10:40:55;;;;;;;0.50;0.50;;;;;;;;;;13046145;22;20043;-73
2024/03/13 10:45:58;;;;;;;1.88;0.70;;;;;;;;;;13063502;22;20047;-73
2024/03/13 10:51:03;;;;;;;1.50;0.70;;;;;;;;;;13046097;22;20343;-73
2024/03/13 10:56:12;;;;;;;0.50;0.50;;;;;;;;;;13061772;22;20034;-74
2024/03/13 11:01:16;;;;;;;0.28;0.28;;;;;;;;;;13046348;22;20025;-73
2024/03/13 11:06:19;;;;;;;1.20;0.50;;;;;;;;;;13046123;22;20023;-73
2024/03/13 11:11:23;;;;;;;1.27;0.60;;;;;;;;;;13047066;22;20026;-73
2024/03/13 11:16:26;;;;;;;0.30;0.30;;;;;;;;;;13048402;22;20046;-73
2024/03/13 11:21:30;;;;;;;0.40;0.40;;;;;;;;;;13038523;22;20115;-74
2024/03/13 11:26:34;;;;;;;0.52;0.50;;;;;;;;;;13064145;22;20342;-74
2024/03/13 11:31:40;;;;;;;0.63;0.30;;;;;;;;;;13063830;22;20027;-75
2024/03/13 11:36:44;;;;;;;0.45;0.40;;;;;;;;;;13050346;22;20415;-75
2024/03/13 11:41:47;;;;;;;1.35;0.60;;;;;;;;;;13023287;22;20019;-74
2024/03/13 11:46:53;;;;;;;0.88;0.65;;;;;;;;;;13050289;22;20102;-74
2024/03/13 11:52:12;;;;;;;2.40;0.83;;;;;;;;;;13061970;22;20023;-74
2024/03/13 11:57:17;;;;;;;1.63;0.90;;;;;;;;;;13059822;22;20314;-74
2024/03/13 12:02:38;;;;;;;0.68;0.50;;;;;;;;;;13059911;22;20050;-74
2024/03/13 12:07:43;;;;;;;1.83;0.60;;;;;;;;;;13059191;22;20035;-74
2024/03/13 12:12:47;;;;;;;1.00;0.68;;;;;;;;;;13049096;22;20019;-74
2024/03/13 12:17:51;;;;;;;0.47;0.47;;;;;;;;;;13057262;22;20023;-74
2024/03/13 12:22:54;;;;;;;1.63;0.55;;;;;;;;;;13047916;22;20026;-74
2024/03/13 12:27:58;;;;;;;1.23;0.57;;;;;;;;;;13022289;22;20359;-74
2024/03/13 12:33:13;;;;;;;2.08;0.70;;;;;;;;;;13049138;22;20026;-74
2024/03/13 12:38:17;;;;;;;0.40;0.40;;;;;;;;;;13027837;22;20026;-74
2024/03/13 12:43:22;;;;;;;0.47;0.47;;;;;;;;;;13047694;22;20184;-74
2024/03/13 12:48:26;;;;;;;1.25;0.70;;;;;;;;;;13054813;22;20030;-74
2024/03/13 12:53:31;;;;;;;0.60;0.30;;;;;;;;;;13053985;22;20023;-74
2024/03/13 12:58:34;;;;;;;0.75;0.40;;;;;;;;;;13047971;22;20072;-74
2024/03/13 13:03:38;;;;;;;0.60;0.30;;;;;;;;;;13047205;22;20019;-74
2024/03/13 13:08:42;;;;;;;1.15;0.63;;;;;;;;;;13048622;22;20072;-74
2024/03/13 13:13:46;;;;;;;0.43;0.40;;;;;;;;;;13052184;22;20092;-74
2024/03/13 13:18:52;;;;;;;1.13;0.50;;;;;;;;;;13047702;22;20053;-74
2024/03/13 13:23:56;;;;;;;0.47;0.47;;;;;;;;;;13051987;22;20072;-74
2024/03/13 13:28:59;;;;;;;1.08;0.60;;;;;;;;;;13046687;22;20467;-74
2024/03/13 13:34:08;;;;;;;0.50;0.30;;;;;;;;;;13056233;22;20037;-74
2024/03/13 13:39:13;;;;;;;2.63;0.30;;;;;;;;;;13050287;22;20019;-74
2024/03/13 13:44:19;;;;;;;1.60;0.30;;;;;;;;;;13047989;22;20098;-74
2024/03/13 13:49:23;;;;;;;0.25;0.22;;;;;;;;;;13051276;22;20027;-74
2024/03/13 13:54:26;;;;;;;0.25;0.25;;;;;;;;;;13046475;22;20019;-74
2024/03/13 13:59:31;;;;;;;6.00;0.70;;;;;;;;;;13046677;22;20018;-74
2024/03/13 14:04:35;;;;;;;1.90;0.50;;;;;;;;;;13048944;22;20023;-74
2024/03/13 14:09:38;;;;;;;0.40;0.38;;;;;;;;;;13045547;22;20057;-74
2024/03/13 14:14:42;;;;;;;1.10;0.40;;;;;;;;;;13045705;22;20016;-74
2024/03/13 14:19:46;;;;;;;0.68;0.38;;;;;;;;;;13046125;22;20437;-74
2024/03/13 14:24:49;;;;;;;0.70;0.20;;;;;;;;;;13045972;22;20400;-74
2024/03/13 14:29:52;;;;;;;0.30;0.30;;;;;;;;;;13019717;22;20014;-74
2024/03/13 14:34:58;;;;;;;1.35;0.25;;;;;;;;;;13045704;22;20026;-74
2024/03/13 14:40:10;;;;;;;2.22;0.68;;;;;;;;;;13022866;22;20049;-74
2024/03/13 14:45:14;;;;;;;0.52;0.40;;;;;;;;;;13070106;22;20031;-74
2024/03/13 14:50:18;;;;;;;0.47;0.30;;;;;;;;;;13050543;22;20019;-74
2024/03/13 14:55:21;;;;;;;0.45;0.30;;;;;;;;;;13050037;22;20019;-74
2024/03/13 15:00:25;;;;;;;2.10;0.60;;;;;;;;;;13049380;22;20026;-74
2024/03/13 15:05:29;;;;;;;1.10;0.40;;;;;;;;;;13069584;22;20046;-74
2024/03/13 15:10:33;;;;;;;1.55;0.52;;;;;;;;;;13050084;22;20470;-74
2024/03/13 15:15:37;;;;;;;2.17;0.70;;;;;;;;;;13049577;22;20018;-74
2024/03/13 15:20:43;;;;;;;1.60;0.60;;;;;;;;;;13049565;22;20050;-74
2024/03/13 15:25:46;;;;;;;0.43;0.40;;;;;;;;;;13067947;22;20068;-74
2024/03/13 15:30:53;;;;;;;0.40;0.40;;;;;;;;;;13067243;22;20022;-74
2024/03/13 15:35:57;;;;;;;0.65;0.50;;;;;;;;;;13024617;22;20071;-74
2024/03/13 15:41:02;;;;;;;0.98;0.70;;;;;;;;;;13048351;22;20078;-74
2024/03/13 15:46:06;;;;;;;1.00;0.57;;;;;;;;;;13064895;22;20022;-74
2024/03/13 15:51:10;;;;;;;1.48;0.60;;;;;;;;;;13047486;22;20400;-74
2024/03/13 15:56:13;;;;;;;0.30;0.30;;;;;;;;;;13047510;22;20075;-74
2024/03/13 16:01:17;;;;;;;1.00;0.40;;;;;;;;;;13048602;22;20018;-74
2024/03/13 16:06:21;;;;;;;1.25;0.60;;;;;;;;;;13049073;22;20512;-74
2024/03/13 16:11:25;;;;;;;1.35;0.90;;;;;;;;;;13063613;22;20128;-74
2024/03/13 16:16:29;;;;;;;1.83;0.82;;;;;;;;;;13048929;22;20033;-74
2024/03/13 16:21:33;;;;;;;0.73;0.50;;;;;;;;;;13047756;22;20474;-74
2024/03/13 16:26:37;;;;;;;1.80;0.95;;;;;;;;;;13048192;22;20057;-74
2024/03/13 16:31:40;;;;;;;0.93;0.63;;;;;;;;;;13047629;22;20027;-74
2024/03/13 16:36:45;;;;;;;1.23;0.57;;;;;;;;;;13047752;22;20018;-74
2024/03/13 16:41:49;;;;;;;1.08;0.52;;;;;;;;;;13047393;22;20470;-74
2024/03/13 16:46:52;;;;;;;1.92;0.77;;;;;;;;;;13046942;22;20027;-74
2024/03/13 16:51:56;;;;;;;1.08;0.55;;;;;;;;;;13047446;22;20031;-74
2024/03/13 16:57:00;;;;;;;1.25;0.73;;;;;;;;;;13047580;22;20022;-74
2024/03/13 17:02:05;;;;;;;0.40;0.40;;;;;;;;;;13020576;22;20027;-74
2024/03/13 17:07:09;;;;;;;0.88;0.50;;;;;;;;;;13059675;22;20511;-74
2024/03/13 17:12:12;;;;;;;1.70;0.60;;;;;;;;;;13063036;22;20030;-74
2024/03/13 17:17:15;;;;;;;1.13;0.80;;;;;;;;;;13051076;22;20023;-74
2024/03/13 17:22:20;;;;;;;1.15;0.82;;;;;;;;;;13048877;22;20115;-74
2024/03/13 17:27:24;;;;;;;1.10;0.60;;;;;;;;;;13059649;22;20378;-74
2024/03/13 17:32:28;;;;;;;1.30;0.65;;;;;;;;;;13046051;22;20466;-74
2024/03/13 17:37:31;;;;;;;1.77;1.00;;;;;;;;;;13044208;22;20027;-74
2024/03/13 17:42:35;;;;;;;1.30;0.90;;;;;;;;;;13046205;22;20031;-74
2024/03/13 17:47:38;;;;;;;0.70;0.70;;;;;;;;;;13046598;22;20087;-74
2024/03/13 17:52:42;;;;;;;1.25;0.82;;;;;;;;;;13046320;22;20027;-74
2024/03/13 17:57:46;;;;;;;1.00;0.80;;;;;;;;;;13046970;22;20041;-74
2024/03/13 18:02:50;;;;;;;0.93;0.70;;;;;;;;;;13044871;22;20030;-74
2024/03/13 18:07:53;;;;;;;0.50;0.50;;;;;;;;;;13046468;22;20485;-74
2024/03/13 18:12:57;;;;;;;0.65;0.65;;;;;;;;;;13046349;22;20031;-74
2024/03/13 18:18:00;;;;;;;0.70;0.50;;;;;;;;;;13044853;22;20079;-74
2024/03/13 18:23:04;;;;;;;1.20;0.50;;;;;;;;;;13045173;22;20102;-74
2024/03/13 18:28:08;;;;;;;1.13;0.60;;;;;;;;;;13044404;22;20023;-74
2024/03/13 18:33:11;;;;;;;0.40;0.40;;;;;;;;;;13040052;22;20349;-74
2024/03/13 18:38:15;;;;;;;0.50;0.50;;;;;;;;;;13041195;22;20227;-74
2024/03/13 18:43:18;;;;;;;1.73;0.43;;;;;;;;;;13043793;22;20354;-74
2024/03/13 18:48:22;;;;;;;0.75;0.63;;;;;;;;;;13042851;22;20034;-74
2024/03/13 18:53:26;;;;;;;0.57;0.45;;;;;;;;;;13017376;22;20096;-74
2024/03/13 18:58:29;;;;;;;0.45;0.45;;;;;;;;;;13043925;22;20094;-74
2024/03/13 19:03:34;;;;;;;1.13;0.70;;;;;;;;;;13049663;22;20190;-74
2024/03/13 19:08:37;;;;;;;0.60;0.60;;;;;;;;;;13016418;22;20023;-74
2024/03/13 19:13:41;;;;;;;0.43;0.43;;;;;;;;;;13019313;22;20030;-74
2024/03/13 19:18:45;;;;;;;2.28;1.15;;;;;;;;;;13019769;22;20068;-74
2024/03/13 19:23:49;;;;;;;2.35;0.80;;;;;;;;;;13045485;22;20416;-74
2024/03/13 19:28:52;;;;;;;0.60;0.60;;;;;;;;;;13019300;22;20101;-74
2024/03/13 19:33:56;;;;;;;0.73;0.70;;;;;;;;;;13045716;22;20424;-74
2024/03/13 19:39:00;;;;;;;0.90;0.88;;;;;;;;;;13047280;22;20094;-74
2024/03/13 19:44:03;;;;;;;1.70;1.30;;;;;;;;;;13046571;22;20022;-74
2024/03/13 19:49:07;;;;;;;1.33;1.10;;;;;;;;;;13047458;22;20023;-74
2024/03/13 19:54:10;;;;;;;2.10;1.30;;;;;;;;;;13047858;22;20026;-74
2024/03/13 19:59:14;;;;;;;2.67;1.17;;;;;;;;;;13047852;22;20023;-74
2024/03/13 20:04:18;;;;;;;1.35;1.00;;;;;;;;;;13048228;22;20088;-74
2024/03/13 20:09:21;;;;;;;2.63;1.30;;;;;;;;;;13046959;22;20487;-74
2024/03/13 20:14:25;;;;;;;3.28;1.20;;;;;;;;;;13047067;22;20018;-74
2024/03/13 20:19:28;;;;;;;1.33;0.90;;;;;;;;;;13047796;22;20070;-74
2024/03/13 20:24:33;;;;;;;1.48;1.08;;;;;;;;;;13047561;22;20023;-74
2024/03/13 20:29:36;;;;;;;1.55;1.08;;;;;;;;;;13021391;22;20023;-74
2024/03/13 20:34:40;;;;;;;2.08;1.30;;;;;;;;;;13046549;22;20055;-74
2024/03/13 20:39:43;;;;;;;1.23;1.08;;;;;;;;;;13021526;22;20108;-74
2024/03/13 20:44:47;;;;;;;2.35;1.50;;;;;;;;;;13046534;22;20778;-73
2024/03/13 20:49:50;;;;;;;1.73;1.38;;;;;;;;;;13046596;22;20026;-74
2024/03/13 20:54:54;;;;;;;3.42;2.20;;;;;;;;;;13049946;22;20033;-73
2024/03/13 21:00:00;;;;;;;3.17;2.05;;;;;;;;;;13047644;22;20015;-74
2024/03/13 21:05:03;;;;;;;2.40;1.67;;;;;;;;;;13070023;22;20018;-74
2024/03/13 21:10:09;;;;;;;2.50;1.75;;;;;;;;;;13047107;22;20076;-74
2024/03/13 21:15:13;;;;;;;3.20;1.40;;;;;;;;;;13068148;22;20597;-74
2024/03/13 21:20:17;;;;;;;2.60;1.75;;;;;;;;;;13047183;22;20026;-74
2024/03/13 21:25:55;;;;;;;2.92;1.50;;;;;;;;;;13046859;22;20023;-74
2024/03/13 21:30:59;;;;;;;2.15;1.42;;;;;;;;;;13054477;22;20041;-74
2024/03/13 21:36:04;;;;;;;4.03;3.20;;;;;;;;;;13020463;22;20385;-74
2024/03/13 21:41:10;;;;;;;5.05;3.95;;;;;;;;;;13046730;22;20022;-74
2024/03/13 21:46:13;;;;;;;3.08;2.78;;;;;;;;;;13047976;22;20053;-74
2024/03/13 21:51:17;;;;;;;3.35;2.72;;;;;;;;;;13035755;22;20046;-74
2024/03/13 21:56:20;;;;;;;2.78;2.20;;;;;;;;;;13044984;22;20014;-74
2024/03/13 22:07:53;;;;;;;2.45;1.95;;;;;;;;;;13092253;22;20019;-74
2024/03/13 22:12:56;;;;;;;2.00;1.55;;;;;;;;;;13045571;22;20551;-73
2024/03/13 22:18:01;;;;;;;1.90;1.45;;;;;;;;;;13045033;22;20022;-74
2024/03/13 22:23:06;;;;;;;2.03;1.30;;;;;;;;;;13046218;22;20503;-74
2024/03/13 22:28:09;;;;;;;1.75;1.60;;;;;;;;;;13053532;22;20406;-74
2024/03/13 22:33:13;;;;;;;1.65;1.20;;;;;;;;;;13019339;22;20018;-74
2024/03/13 22:38:17;;;;;;;2.58;1.40;;;;;;;;;;13052238;22;20015;-74
2024/03/13 22:43:21;;;;;;;1.42;1.25;;;;;;;;;;13047102;22;20678;-73
2024/03/13 22:48:24;;;;;;;1.40;1.30;;;;;;;;;;13047628;22;20037;-74
2024/03/13 22:53:28;;;;;;;1.40;1.30;;;;;;;;;;13048328;22;20335;-74
2024/03/13 22:58:32;;;;;;;1.50;1.05;;;;;;;;;;13054546;22;20042;-73
2024/03/13 23:03:35;;;;;;;0.88;0.85;;;;;;;;;;13047144;22;20023;-74
2024/03/13 23:08:38;;;;;;;2.08;0.80;;;;;;;;;;13050324;22;20094;-74
2024/03/13 23:13:42;;;;;;;1.60;1.05;;;;;;;;;;13051040;22;20111;-74
2024/03/13 23:18:47;;;;;;;1.53;1.10;;;;;;;;;;13025297;22;20023;-74
2024/03/13 23:23:53;;;;;;;2.42;1.52;;;;;;;;;;13025340;22;20026;-73
2024/03/13 23:28:58;;;;;;;4.88;1.77;;;;;;;;;;13056812;22;20019;-73
2024/03/13 23:34:04;;;;;;;5.13;2.10;;;;;;;;;;13054774;22;20026;-74
2024/03/13 23:39:09;;;;;;;3.30;2.33;;;;;;;;;;13050544;22;20048;-74
2024/03/13 23:44:12;;;;;;;2.80;1.35;;;;;;;;;;13051135;22;20127;-74
2024/03/13 23:49:15;;;;;;;2.13;1.30;;;;;;;;;;13051420;22;20083;-74
2024/03/13 23:54:19;;;;;;;1.30;1.20;;;;;;;;;;13048686;22;20342;-74
2024/03/13 23:59:23;;;;;;;2.15;1.52;;;;;;;;;;13025808;22;20064;-74
